sensor_id;sensor_type;location;lat;lon;timestamp;pressure;altitude;pressure_sealevel;temperature;humidity
34925;BME280;21130;51.728;8.748;2022-09-17T00:01:55;99740.88;;;9.15;100.00
34925;BME280;21130;51.728;8.748;2022-09-17T00:04:20;99744.22;;;9.17;100.00
34925;BME280;21130;51.728;8.748;2022-09-17T00:06:45;99735.09;;;9.17;100.00
34925;BME280;21130;51.728;8.748;2022-09-17T00:09:11;99735.84;;;9.12;100.00
34925;BME280;21130;51.728;8.748;2022-09-17T00:11:39;99733.66;;;9.14;100.00
34925;BME280;21130;51.728;8.748;2022-09-17T00:14:06;99737.78;;;9.12;100.00
34925;BME280;21130;51.728;8.748;2022-09-17T00:16:36;99740.78;;;9.10;100.00
34925;BME280;21130;51.728;8.748;2022-09-17T00:19:03;99747.19;;;9.11;100.00
34925;BME280;21130;51.728;8.748;2022-09-17T00:21:29;99743.91;;;9.14;100.00
34925;BME280;21130;51.728;8.748;2022-09-17T00:23:57;99751.13;;;9.15;100.00
34925;BME280;21130;51.728;8.748;2022-09-17T00:26:23;99748.34;;;9.15;100.00
34925;BME280;21130;51.728;8.748;2022-09-17T00:28:50;99744.75;;;9.14;100.00
34925;BME280;21130;51.728;8.748;2022-09-17T00:31:16;99741.75;;;9.16;100.00
34925;BME280;21130;51.728;8.748;2022-09-17T00:33:42;99750.03;;;9.16;100.00
34925;BME280;21130;51.728;8.748;2022-09-17T00:36:07;99750.03;;;9.16;100.00
34925;BME280;21130;51.728;8.748;2022-09-17T00:38:32;99741.47;;;9.17;100.00
34925;BME280;21130;51.728;8.748;2022-09-17T00:40:59;99751.94;;;9.15;100.00
34925;BME280;21130;51.728;8.748;2022-09-17T00:43:47;99750.28;;;9.14;100.00
34925;BME280;21130;51.728;8.748;2022-09-17T00:46:41;99751.69;;;9.17;100.00
34925;BME280;21130;51.728;8.748;2022-09-17T00:49:17;99752.53;;;9.17;100.00
34925;BME280;21130;51.728;8.748;2022-09-17T00:52:14;99749.84;;;9.22;100.00
34925;BME280;21130;51.728;8.748;2022-09-17T00:54:45;99752.13;;;9.25;100.00
34925;BME280;21130;51.728;8.748;2022-09-17T00:57:14;99753.72;;;9.21;100.00
34925;BME280;21130;51.728;8.748;2022-09-17T00:59:40;99756.22;;;9.23;100.00
34925;BME280;21130;51.728;8.748;2022-09-17T01:02:05;99752.59;;;9.22;100.00
34925;BME280;21130;51.728;8.748;2022-09-17T01:04:31;99750.44;;;9.24;100.00
34925;BME280;21130;51.728;8.748;2022-09-17T01:12:17;99755.72;;;9.26;100.00
34925;BME280;21130;51.728;8.748;2022-09-17T01:17:33;99761.50;;;9.24;100.00
34925;BME280;21130;51.728;8.748;2022-09-17T01:20:22;99767.38;;;9.28;100.00
34925;BME280;21130;51.728;8.748;2022-09-17T01:26:18;99765.19;;;9.30;100.00
34925;BME280;21130;51.728;8.748;2022-09-17T01:31:48;99757.97;;;9.29;100.00
34925;BME280;21130;51.728;8.748;2022-09-17T01:40:58;99771.00;;;9.28;100.00
34925;BME280;21130;51.728;8.748;2022-09-17T01:47:08;99776.00;;;9.32;100.00
34925;BME280;21130;51.728;8.748;2022-09-17T01:50:01;99785.06;;;9.27;100.00
34925;BME280;21130;51.728;8.748;2022-09-17T01:52:49;99774.84;;;9.27;100.00
34925;BME280;21130;51.728;8.748;2022-09-17T01:55:38;99778.72;;;9.26;100.00
34925;BME280;21130;51.728;8.748;2022-09-17T01:58:28;99782.06;;;9.28;100.00
34925;BME280;21130;51.728;8.748;2022-09-17T02:01:19;99777.59;;;9.27;100.00
34925;BME280;21130;51.728;8.748;2022-09-17T02:04:30;99769.66;;;9.31;100.00
34925;BME280;21130;51.728;8.748;2022-09-17T02:07:07;99779.03;;;9.30;100.00
34925;BME280;21130;51.728;8.748;2022-09-17T02:09:43;99782.38;;;9.32;100.00
34925;BME280;21130;51.728;8.748;2022-09-17T02:12:14;99775.09;;;9.26;100.00
34925;BME280;21130;51.728;8.748;2022-09-17T02:14:48;99779.03;;;9.30;100.00
34925;BME280;21130;51.728;8.748;2022-09-17T02:19:50;99788.69;;;9.27;100.00
34925;BME280;21130;51.728;8.748;2022-09-17T02:22:28;99798.09;;;9.26;100.00
34925;BME280;21130;51.728;8.748;2022-09-17T02:25:02;99790.88;;;9.25;100.00
34925;BME280;21130;51.728;8.748;2022-09-17T02:27:51;99792.19;;;9.23;100.00
34925;BME280;21130;51.728;8.748;2022-09-17T02:30:21;99796.81;;;9.17;100.00
34925;BME280;21130;51.728;8.748;2022-09-17T02:32:46;99795.75;;;9.18;100.00
34925;BME280;21130;51.728;8.748;2022-09-17T02:35:12;99793.22;;;9.17;100.00
34925;BME280;21130;51.728;8.748;2022-09-17T02:37:40;99792.31;;;9.11;100.00
34925;BME280;21130;51.728;8.748;2022-09-17T02:40:28;99800.88;;;9.09;100.00
34925;BME280;21130;51.728;8.748;2022-09-17T02:54:27;99804.06;;;9.01;100.00
34925;BME280;21130;51.728;8.748;2022-09-17T02:57:01;99804.56;;;8.98;100.00
34925;BME280;21130;51.728;8.748;2022-09-17T03:02:11;99801.81;;;8.98;100.00
34925;BME280;21130;51.728;8.748;2022-09-17T03:04:41;99814.22;;;8.96;100.00
34925;BME280;21130;51.728;8.748;2022-09-17T03:07:07;99810.25;;;8.92;100.00
34925;BME280;21130;51.728;8.748;2022-09-17T03:09:34;99808.94;;;8.94;100.00
34925;BME280;21130;51.728;8.748;2022-09-17T03:12:01;99804.22;;;8.95;100.00
34925;BME280;21130;51.728;8.748;2022-09-17T03:14:27;99809.75;;;8.95;100.00
34925;BME280;21130;51.728;8.748;2022-09-17T03:16:52;99813.78;;;8.87;100.00
34925;BME280;21130;51.728;8.748;2022-09-17T03:19:17;99811.84;;;8.87;100.00
34925;BME280;21130;51.728;8.748;2022-09-17T03:21:43;99817.38;;;8.87;100.00
34925;BME280;21130;51.728;8.748;2022-09-17T03:24:08;99817.38;;;8.87;100.00
34925;BME280;21130;51.728;8.748;2022-09-17T03:26:35;99818.16;;;8.83;100.00
34925;BME280;21130;51.728;8.748;2022-09-17T03:29:01;99818.06;;;8.78;100.00
34925;BME280;21130;51.728;8.748;2022-09-17T03:31:26;99815.31;;;8.78;100.00
34925;BME280;21130;51.728;8.748;2022-09-17T03:33:52;99812.91;;;8.70;100.00
34925;BME280;21130;51.728;8.748;2022-09-17T03:36:17;99812.25;;;8.62;100.00
34925;BME280;21130;51.728;8.748;2022-09-17T03:38:42;99822.38;;;8.57;100.00
34925;BME280;21130;51.728;8.748;2022-09-17T03:41:07;99819.00;;;8.55;100.00
34925;BME280;21130;51.728;8.748;2022-09-17T03:43:33;99813.75;;;8.53;100.00
34925;BME280;21130;51.728;8.748;2022-09-17T03:45:58;99827.50;;;8.48;100.00
34925;BME280;21130;51.728;8.748;2022-09-17T03:48:24;99817.50;;;8.47;100.00
34925;BME280;21130;51.728;8.748;2022-09-17T03:50:50;99829.66;;;8.46;100.00
34925;BME280;21130;51.728;8.748;2022-09-17T03:53:15;99827.72;;;8.47;100.00
34925;BME280;21130;51.728;8.748;2022-09-17T03:55:42;99826.28;;;8.44;100.00
34925;BME280;21130;51.728;8.748;2022-09-17T03:58:08;99838.19;;;8.44;100.00
34925;BME280;21130;51.728;8.748;2022-09-17T04:00:33;99842.56;;;8.40;100.00
34925;BME280;21130;51.728;8.748;2022-09-17T04:03:01;99832.06;;;8.42;100.00
34925;BME280;21130;51.728;8.748;2022-09-17T04:05:27;99832.69;;;8.33;100.00
34925;BME280;21130;51.728;8.748;2022-09-17T04:07:52;99839.47;;;8.25;100.00
34925;BME280;21130;51.728;8.748;2022-09-17T04:10:17;99842.22;;;8.25;100.00
34925;BME280;21130;51.728;8.748;2022-09-17T04:12:43;99836.09;;;8.23;100.00
34925;BME280;21130;51.728;8.748;2022-09-17T04:15:09;99835.50;;;8.21;100.00
34925;BME280;21130;51.728;8.748;2022-09-17T04:17:34;99839.94;;;8.22;100.00
34925;BME280;21130;51.728;8.748;2022-09-17T04:20:00;99842.56;;;8.29;100.00
34925;BME280;21130;51.728;8.748;2022-09-17T04:22:25;99855.56;;;8.28;100.00
34925;BME280;21130;51.728;8.748;2022-09-17T04:24:51;99854.94;;;8.26;100.00
34925;BME280;21130;51.728;8.748;2022-09-17T04:27:16;99846.06;;;8.24;100.00
34925;BME280;21130;51.728;8.748;2022-09-17T04:29:42;99862.16;;;8.27;100.00
34925;BME280;21130;51.728;8.748;2022-09-17T04:32:07;99853.84;;;8.27;100.00
34925;BME280;21130;51.728;8.748;2022-09-17T04:34:33;99863.47;;;8.25;100.00
34925;BME280;21130;51.728;8.748;2022-09-17T04:36:59;99866.59;;;8.28;100.00
34925;BME280;21130;51.728;8.748;2022-09-17T04:39:24;99870.44;;;8.27;100.00
34925;BME280;21130;51.728;8.748;2022-09-17T04:41:49;99863.25;;;8.26;100.00
34925;BME280;21130;51.728;8.748;2022-09-17T04:44:14;99868.16;;;8.24;100.00
34925;BME280;21130;51.728;8.748;2022-09-17T04:46:40;99864.34;;;8.25;100.00
34925;BME280;21130;51.728;8.748;2022-09-17T04:49:05;99874.78;;;8.23;100.00
34925;BME280;21130;51.728;8.748;2022-09-17T04:51:30;99877.78;;;8.21;100.00
34925;BME280;21130;51.728;8.748;2022-09-17T04:53:55;99882.50;;;8.21;100.00
34925;BME280;21130;51.728;8.748;2022-09-17T04:56:21;99885.34;;;8.26;100.00
34925;BME280;21130;51.728;8.748;2022-09-17T04:58:46;99875.63;;;8.23;100.00
34925;BME280;21130;51.728;8.748;2022-09-17T05:01:11;99879.72;;;8.21;100.00
34925;BME280;21130;51.728;8.748;2022-09-17T05:03:38;99880.31;;;8.23;100.00
34925;BME280;21130;51.728;8.748;2022-09-17T05:06:03;99869.16;;;8.18;100.00
34925;BME280;21130;51.728;8.748;2022-09-17T05:08:29;99888.50;;;8.18;100.00
34925;BME280;21130;51.728;8.748;2022-09-17T05:10:54;99879.97;;;8.19;100.00
34925;BME280;21130;51.728;8.748;2022-09-17T05:13:42;99881.78;;;8.14;100.00
34925;BME280;21130;51.728;8.748;2022-09-17T05:16:15;99886.47;;;8.13;100.00
34925;BME280;21130;51.728;8.748;2022-09-17T05:18:41;99890.56;;;8.11;100.00
34925;BME280;21130;51.728;8.748;2022-09-17T05:21:06;99886.47;;;8.13;100.00
34925;BME280;21130;51.728;8.748;2022-09-17T05:23:31;99893.34;;;8.11;100.00
34925;BME280;21130;51.728;8.748;2022-09-17T05:25:57;99880.47;;;8.05;100.00
34925;BME280;21130;51.728;8.748;2022-09-17T05:28:24;99888.75;;;8.05;100.00
34925;BME280;21130;51.728;8.748;2022-09-17T05:30:49;99886.50;;;8.01;100.00
34925;BME280;21130;51.728;8.748;2022-09-17T05:33:14;99884.72;;;7.95;100.00
34925;BME280;21130;51.728;8.748;2022-09-17T05:35:39;99896.50;;;7.91;100.00
34925;BME280;21130;51.728;8.748;2022-09-17T05:38:05;99905.13;;;7.94;100.00
34925;BME280;21130;51.728;8.748;2022-09-17T05:40:31;99903.94;;;7.90;100.00
34925;BME280;21130;51.728;8.748;2022-09-17T05:42:58;99907.78;;;7.89;100.00
34925;BME280;21130;51.728;8.748;2022-09-17T05:45:23;99910.16;;;7.97;100.00
34925;BME280;21130;51.728;8.748;2022-09-17T05:47:56;99911.38;;;8.01;100.00
34925;BME280;21130;51.728;8.748;2022-09-17T05:50:22;99911.25;;;7.96;100.00
34925;BME280;21130;51.728;8.748;2022-09-17T05:52:48;99908.88;;;8.00;100.00
34925;BME280;21130;51.728;8.748;2022-09-17T05:55:14;99908.00;;;7.99;100.00
34925;BME280;21130;51.728;8.748;2022-09-17T05:57:39;99908.88;;;8.00;100.00
34925;BME280;21130;51.728;8.748;2022-09-17T06:00:05;99911.03;;;7.98;100.00
34925;BME280;21130;51.728;8.748;2022-09-17T06:02:31;99923.50;;;8.00;100.00
34925;BME280;21130;51.728;8.748;2022-09-17T06:04:56;99922.91;;;7.98;100.00
34925;BME280;21130;51.728;8.748;2022-09-17T06:07:25;99924.56;;;7.99;100.00
34925;BME280;21130;51.728;8.748;2022-09-17T06:09:50;99923.97;;;7.97;100.00
34925;BME280;21130;51.728;8.748;2022-09-17T06:12:15;99931.44;;;7.97;100.00
34925;BME280;21130;51.728;8.748;2022-09-17T06:14:41;99935.50;;;8.06;100.00
34925;BME280;21130;51.728;8.748;2022-09-17T06:17:06;99944.16;;;8.10;100.00
34925;BME280;21130;51.728;8.748;2022-09-17T06:19:32;99934.53;;;8.12;100.00
34925;BME280;21130;51.728;8.748;2022-09-17T06:21:57;99945.81;;;8.22;100.00
34925;BME280;21130;51.728;8.748;2022-09-17T06:24:23;99944.00;;;8.28;100.00
34925;BME280;21130;51.728;8.748;2022-09-17T06:26:48;99944.84;;;8.29;100.00
34925;BME280;21130;51.728;8.748;2022-09-17T06:29:13;99953.16;;;8.40;100.00
34925;BME280;21130;51.728;8.748;2022-09-17T06:31:40;99957.22;;;8.38;100.00
34925;BME280;21130;51.728;8.748;2022-09-17T06:34:05;99947.97;;;8.44;100.00
34925;BME280;21130;51.728;8.748;2022-09-17T06:36:51;99948.69;;;8.39;100.00
34925;BME280;21130;51.728;8.748;2022-09-17T06:39:17;99948.06;;;8.37;100.00
34925;BME280;21130;51.728;8.748;2022-09-17T06:41:42;99948.69;;;8.39;100.00
34925;BME280;21130;51.728;8.748;2022-09-17T06:44:08;99945.44;;;8.42;100.00
34925;BME280;21130;51.728;8.748;2022-09-17T06:46:33;99941.09;;;8.47;100.00
34925;BME280;21130;51.728;8.748;2022-09-17T06:48:59;99940.59;;;8.50;100.00
34925;BME280;21130;51.728;8.748;2022-09-17T06:51:24;99951.56;;;8.44;100.00
34925;BME280;21130;51.728;8.748;2022-09-17T06:53:49;99948.31;;;8.48;100.00
34925;BME280;21130;51.728;8.748;2022-09-17T06:56:15;99940.72;;;8.55;100.00
34925;BME280;21130;51.728;8.748;2022-09-17T06:58:40;99933.56;;;8.71;100.00
34925;BME280;21130;51.728;8.748;2022-09-17T07:01:07;99957.53;;;8.94;100.00
34925;BME280;21130;51.728;8.748;2022-09-17T07:03:33;99951.50;;;8.97;100.00
34925;BME280;21130;51.728;8.748;2022-09-17T07:05:58;99954.88;;;8.99;100.00
34925;BME280;21130;51.728;8.748;2022-09-17T07:08:24;99952.00;;;8.94;100.00
34925;BME280;21130;51.728;8.748;2022-09-17T07:10:50;99954.88;;;8.99;100.00
34925;BME280;21130;51.728;8.748;2022-09-17T07:13:16;99948.03;;;9.18;100.00
34925;BME280;21130;51.728;8.748;2022-09-17T07:15:41;99945.69;;;9.44;100.00
34925;BME280;21130;51.728;8.748;2022-09-17T07:18:10;99947.28;;;9.57;100.00
34925;BME280;21130;51.728;8.748;2022-09-17T07:20:36;99942.50;;;9.69;100.00
34925;BME280;21130;51.728;8.748;2022-09-17T07:23:02;99944.09;;;9.82;100.00
34925;BME280;21130;51.728;8.748;2022-09-17T07:25:28;99945.44;;;9.79;100.00
34925;BME280;21130;51.728;8.748;2022-09-17T07:27:54;99942.22;;;9.87;100.00
34925;BME280;21130;51.728;8.748;2022-09-17T07:30:19;99939.28;;;9.94;100.00
34925;BME280;21130;51.728;8.748;2022-09-17T07:32:45;99938.59;;;10.04;100.00
34925;BME280;21130;51.728;8.748;2022-09-17T07:35:10;99943.69;;;10.12;100.00
34925;BME280;21130;51.728;8.748;2022-09-17T07:37:43;99942.09;;;10.16;100.00
34925;BME280;21130;51.728;8.748;2022-09-17T07:40:09;99942.09;;;10.16;100.00
34925;BME280;21130;51.728;8.748;2022-09-17T07:42:34;99940.16;;;10.16;100.00
34925;BME280;21130;51.728;8.748;2022-09-17T07:44:59;99946.59;;;10.22;100.00
34925;BME280;21130;51.728;8.748;2022-09-17T07:47:25;99945.69;;;10.33;100.00
34925;BME280;21130;51.728;8.748;2022-09-17T07:49:50;99944.66;;;10.40;100.00
34925;BME280;21130;51.728;8.748;2022-09-17T07:52:15;99942.13;;;10.38;99.27
34925;BME280;21130;51.728;8.748;2022-09-17T07:54:41;99945.47;;;10.40;99.94
34925;BME280;21130;51.728;8.748;2022-09-17T07:57:06;99941.41;;;10.26;100.00
34925;BME280;21130;51.728;8.748;2022-09-17T07:59:31;99946.72;;;10.10;99.53
34925;BME280;21130;51.728;8.748;2022-09-17T08:01:57;99948.50;;;10.00;98.81
34925;BME280;21130;51.728;8.748;2022-09-17T08:04:22;99937.66;;;9.98;99.20
34925;BME280;21130;51.728;8.748;2022-09-17T08:06:47;99961.59;;;10.04;97.88
34925;BME280;21130;51.728;8.748;2022-09-17T08:09:13;99939.06;;;10.17;97.40
34925;BME280;21130;51.728;8.748;2022-09-17T08:11:40;99934.97;;;10.42;96.61
34925;BME280;21130;51.728;8.748;2022-09-17T08:14:09;99935.63;;;10.71;97.00
34925;BME280;21130;51.728;8.748;2022-09-17T08:16:35;99928.84;;;10.62;92.91
34925;BME280;21130;51.728;8.748;2022-09-17T08:19:00;99936.63;;;10.87;91.47
34925;BME280;21130;51.728;8.748;2022-09-17T08:21:26;99945.22;;;11.13;90.39
34925;BME280;21130;51.728;8.748;2022-09-17T08:23:51;99936.72;;;10.97;87.48
34925;BME280;21130;51.728;8.748;2022-09-17T08:26:22;99931.75;;;10.99;88.69
34925;BME280;21130;51.728;8.748;2022-09-17T08:28:49;99941.53;;;10.80;88.40
34925;BME280;21130;51.728;8.748;2022-09-17T08:31:17;99935.41;;;11.05;88.96
34925;BME280;21130;51.728;8.748;2022-09-17T08:33:43;99940.34;;;11.25;86.92
34925;BME280;21130;51.728;8.748;2022-09-17T08:36:11;99929.09;;;11.42;85.28
34925;BME280;21130;51.728;8.748;2022-09-17T08:38:37;99933.94;;;11.57;86.74
34925;BME280;21130;51.728;8.748;2022-09-17T08:46:02;99926.56;;;11.73;83.33
34925;BME280;21130;51.728;8.748;2022-09-17T08:48:36;99929.56;;;11.66;83.69
34925;BME280;21130;51.728;8.748;2022-09-17T08:51:14;99921.75;;;11.63;82.18
34925;BME280;21130;51.728;8.748;2022-09-17T08:54:16;99927.84;;;11.60;80.75
34925;BME280;21130;51.728;8.748;2022-09-17T08:56:51;99918.25;;;11.40;79.52
34925;BME280;21130;51.728;8.748;2022-09-17T08:59:33;99922.38;;;11.70;77.04
34925;BME280;21130;51.728;8.748;2022-09-17T09:02:19;99921.66;;;11.85;76.13
34925;BME280;21130;51.728;8.748;2022-09-17T09:05:09;99925.13;;;12.60;73.27
34925;BME280;21130;51.728;8.748;2022-09-17T09:07:40;99931.50;;;13.54;70.17
34925;BME280;21130;51.728;8.748;2022-09-17T09:10:24;99930.34;;;13.66;69.43
34925;BME280;21130;51.728;8.748;2022-09-17T09:12:52;99923.06;;;13.24;68.70
34925;BME280;21130;51.728;8.748;2022-09-17T09:15:25;99935.56;;;13.01;71.97
34925;BME280;21130;51.728;8.748;2022-09-17T09:17:57;99919.19;;;13.30;71.39
34925;BME280;21130;51.728;8.748;2022-09-17T09:20:31;99938.94;;;14.15;67.05
34925;BME280;21130;51.728;8.748;2022-09-17T09:23:13;99920.75;;;14.33;63.42
34925;BME280;21130;51.728;8.748;2022-09-17T09:25:52;99915.06;;;15.13;63.64
34925;BME280;21130;51.728;8.748;2022-09-17T09:28:34;99914.97;;;14.79;62.85
34925;BME280;21130;51.728;8.748;2022-09-17T09:34:04;99916.16;;;13.67;67.08
34925;BME280;21130;51.728;8.748;2022-09-17T09:36:31;99906.38;;;13.59;68.39
34925;BME280;21130;51.728;8.748;2022-09-17T09:39:06;99907.47;;;13.69;64.99
34925;BME280;21130;51.728;8.748;2022-09-17T09:41:44;99918.09;;;13.41;65.74
34925;BME280;21130;51.728;8.748;2022-09-17T09:44:13;99913.06;;;13.33;66.17
34925;BME280;21130;51.728;8.748;2022-09-17T09:52:41;99913.13;;;15.09;60.57
34925;BME280;21130;51.728;8.748;2022-09-17T09:55:22;99903.06;;;14.63;58.99
34925;BME280;21130;51.728;8.748;2022-09-17T09:58:22;99914.94;;;14.14;59.56
34925;BME280;21130;51.728;8.748;2022-09-17T10:00:51;99918.63;;;13.99;61.81
34925;BME280;21130;51.728;8.748;2022-09-17T10:03:26;99911.41;;;13.57;61.58
34925;BME280;21130;51.728;8.748;2022-09-17T10:06:10;99909.66;;;13.10;64.13
34925;BME280;21130;51.728;8.748;2022-09-17T10:08:38;99914.03;;;12.70;64.10
34925;BME280;21130;51.728;8.748;2022-09-17T10:13:36;99912.19;;;12.28;65.35
34925;BME280;21130;51.728;8.748;2022-09-17T10:16:24;99912.06;;;12.66;65.71
34925;BME280;21130;51.728;8.748;2022-09-17T10:19:12;99908.16;;;12.57;66.66
34925;BME280;21130;51.728;8.748;2022-09-17T10:21:40;99914.28;;;12.64;64.45
34925;BME280;21130;51.728;8.748;2022-09-17T10:24:21;99921.84;;;12.79;63.14
34925;BME280;21130;51.728;8.748;2022-09-17T10:26:48;99905.44;;;12.82;61.68
34925;BME280;21130;51.728;8.748;2022-09-17T10:29:17;99912.72;;;13.19;63.56
34925;BME280;21130;51.728;8.748;2022-09-17T10:31:53;99910.28;;;13.53;60.87
34925;BME280;21130;51.728;8.748;2022-09-17T10:34:26;99903.03;;;13.57;61.65
34925;BME280;21130;51.728;8.748;2022-09-17T10:36:52;99903.31;;;13.56;59.64
34925;BME280;21130;51.728;8.748;2022-09-17T10:41:58;99911.41;;;13.57;62.00
34925;BME280;21130;51.728;8.748;2022-09-17T10:44:26;99903.88;;;13.53;58.41
34925;BME280;21130;51.728;8.748;2022-09-17T10:46:52;99903.78;;;14.09;57.94
34925;BME280;21130;51.728;8.748;2022-09-17T10:49:33;99901.03;;;14.74;56.56
34925;BME280;21130;51.728;8.748;2022-09-17T10:52:24;99898.00;;;14.71;53.10
34925;BME280;21130;51.728;8.748;2022-09-17T10:57:57;99891.47;;;14.90;54.05
34925;BME280;21130;51.728;8.748;2022-09-17T11:00:31;99883.47;;;15.52;52.50
34925;BME280;21130;51.728;8.748;2022-09-17T11:06:26;99889.16;;;14.43;54.78
34925;BME280;21130;51.728;8.748;2022-09-17T11:09:26;99878.78;;;13.48;57.99
34925;BME280;21130;51.728;8.748;2022-09-17T11:12:06;99877.81;;;14.14;56.99
34925;BME280;21130;51.728;8.748;2022-09-17T11:14:50;99883.72;;;14.77;54.13
34925;BME280;21130;51.728;8.748;2022-09-17T11:17:34;99863.88;;;15.18;52.98
34925;BME280;21130;51.728;8.748;2022-09-17T11:28:02;99857.41;;;14.83;53.39
34925;BME280;21130;51.728;8.748;2022-09-17T11:30:45;99861.53;;;14.36;53.78
34925;BME280;21130;51.728;8.748;2022-09-17T11:33:27;99873.72;;;13.86;55.58
34925;BME280;21130;51.728;8.748;2022-09-17T11:35:58;99879.06;;;13.31;57.73
34925;BME280;21130;51.728;8.748;2022-09-17T11:38:48;99890.72;;;13.07;57.71
34925;BME280;21130;51.728;8.748;2022-09-17T11:41:19;99889.81;;;12.76;60.95
34925;BME280;21130;51.728;8.748;2022-09-17T11:46:36;99877.97;;;12.28;68.15
34925;BME280;21130;51.728;8.748;2022-09-17T11:49:21;99870.94;;;12.10;68.22
34925;BME280;21130;51.728;8.748;2022-09-17T11:51:53;99876.63;;;12.41;67.36
34925;BME280;21130;51.728;8.748;2022-09-17T11:54:31;99859.47;;;12.74;65.37
34925;BME280;21130;51.728;8.748;2022-09-17T11:57:09;99858.47;;;13.37;62.60
34925;BME280;21130;51.728;8.748;2022-09-17T11:59:43;99861.50;;;13.56;63.00
34925;BME280;21130;51.728;8.748;2022-09-17T12:02:29;99848.38;;;13.56;61.63
34925;BME280;21130;51.728;8.748;2022-09-17T12:05:33;99855.66;;;13.37;61.70
34925;BME280;21130;51.728;8.748;2022-09-17T12:08:11;99850.34;;;13.10;61.21
34925;BME280;21130;51.728;8.748;2022-09-17T12:11:06;99841.69;;;13.11;60.98
34925;BME280;21130;51.728;8.748;2022-09-17T12:13:41;99857.06;;;13.34;61.10
34925;BME280;21130;51.728;8.748;2022-09-17T12:16:30;99848.69;;;13.24;59.18
34925;BME280;21130;51.728;8.748;2022-09-17T12:21:47;99846.72;;;13.60;59.87
34925;BME280;21130;51.728;8.748;2022-09-17T12:24:26;99842.44;;;13.94;59.35
34925;BME280;21130;51.728;8.748;2022-09-17T12:27:03;99836.31;;;13.87;58.53
34925;BME280;21130;51.728;8.748;2022-09-17T12:32:41;99852.31;;;13.50;60.54
34925;BME280;21130;51.728;8.748;2022-09-17T12:35:28;99845.34;;;13.27;61.18
34925;BME280;21130;51.728;8.748;2022-09-17T12:43:54;99836.31;;;14.02;59.32
34925;BME280;21130;51.728;8.748;2022-09-17T12:51:53;99832.72;;;15.01;50.86
34925;BME280;21130;51.728;8.748;2022-09-17T13:00:04;99827.16;;;15.59;50.81
34925;BME280;21130;51.728;8.748;2022-09-17T13:02:36;99822.91;;;15.03;50.79
34925;BME280;21130;51.728;8.748;2022-09-17T13:08:06;99840.06;;;14.32;55.30
34925;BME280;21130;51.728;8.748;2022-09-17T13:10:56;99835.50;;;13.86;56.77
34925;BME280;21130;51.728;8.748;2022-09-17T13:13:51;99839.47;;;13.34;58.54
34925;BME280;21130;51.728;8.748;2022-09-17T13:16:41;99829.44;;;13.07;59.98
34925;BME280;21130;51.728;8.748;2022-09-17T13:19:38;99834.44;;;13.15;62.54
34925;BME280;21130;51.728;8.748;2022-09-17T13:22:12;99831.97;;;13.29;60.53
34925;BME280;21130;51.728;8.748;2022-09-17T13:24:41;99828.31;;;13.59;58.39
34925;BME280;21130;51.728;8.748;2022-09-17T13:27:19;99820.13;;;14.59;57.05
34925;BME280;21130;51.728;8.748;2022-09-17T13:37:44;99814.81;;;15.65;54.60
34925;BME280;21130;51.728;8.748;2022-09-17T13:40:20;99821.22;;;15.71;52.39
34925;BME280;21130;51.728;8.748;2022-09-17T13:42:49;99808.44;;;15.89;53.76
34925;BME280;21130;51.728;8.748;2022-09-17T13:45:17;99817.69;;;15.84;52.19
34925;BME280;21130;51.728;8.748;2022-09-17T13:47:54;99812.19;;;15.50;52.53
34925;BME280;21130;51.728;8.748;2022-09-17T13:50:34;99811.84;;;15.22;53.21
34925;BME280;21130;51.728;8.748;2022-09-17T13:58:10;99806.09;;;14.14;52.96
34925;BME280;21130;51.728;8.748;2022-09-17T14:00:56;99825.53;;;13.65;54.76
34925;BME280;21130;51.728;8.748;2022-09-17T14:13:51;99850.19;;;14.22;58.62
34925;BME280;21130;51.728;8.748;2022-09-17T14:27:32;99910.28;;;11.49;69.87
34925;BME280;21130;51.728;8.748;2022-09-17T14:30:14;99898.56;;;10.60;76.63
34925;BME280;21130;51.728;8.748;2022-09-17T14:32:57;99907.53;;;10.24;79.98
34925;BME280;21130;51.728;8.748;2022-09-17T14:38:01;99902.50;;;9.82;87.21
34925;BME280;21130;51.728;8.748;2022-09-17T14:40:27;99887.53;;;9.83;88.48
34925;BME280;21130;51.728;8.748;2022-09-17T14:42:56;99890.31;;;9.83;87.17
34925;BME280;21130;51.728;8.748;2022-09-17T14:45:34;99882.41;;;9.91;88.46
34925;BME280;21130;51.728;8.748;2022-09-17T14:48:27;99888.38;;;10.22;88.96
34925;BME280;21130;51.728;8.748;2022-09-17T14:51:15;99880.13;;;10.49;84.85
34925;BME280;21130;51.728;8.748;2022-09-17T14:56:45;99874.72;;;11.51;77.71
34925;BME280;21130;51.728;8.748;2022-09-17T14:59:19;99870.34;;;11.65;75.16
34925;BME280;21130;51.728;8.748;2022-09-17T15:01:48;99875.84;;;11.93;73.00
34925;BME280;21130;51.728;8.748;2022-09-17T15:06:40;99865.31;;;12.00;72.06
34925;BME280;21130;51.728;8.748;2022-09-17T15:09:12;99857.44;;;12.44;70.78
34925;BME280;21130;51.728;8.748;2022-09-17T15:11:40;99856.91;;;12.52;70.13
34925;BME280;21130;51.728;8.748;2022-09-17T15:14:14;99860.00;;;12.71;68.80
34925;BME280;21130;51.728;8.748;2022-09-17T15:16:46;99846.97;;;13.13;67.02
34925;BME280;21130;51.728;8.748;2022-09-17T15:19:13;99859.00;;;13.29;66.44
34925;BME280;21130;51.728;8.748;2022-09-17T15:21:45;99858.41;;;13.11;65.02
34925;BME280;21130;51.728;8.748;2022-09-17T15:24:34;99857.31;;;13.17;65.56
34925;BME280;21130;51.728;8.748;2022-09-17T15:27:45;99869.00;;;13.14;64.67
34925;BME280;21130;51.728;8.748;2022-09-17T15:30:17;99855.06;;;13.19;65.03
34925;BME280;21130;51.728;8.748;2022-09-17T15:32:54;99857.59;;;13.47;65.42
34925;BME280;21130;51.728;8.748;2022-09-17T15:37:57;99858.34;;;13.93;63.22
34925;BME280;21130;51.728;8.748;2022-09-17T15:42:56;99847.28;;;13.47;64.21
34925;BME280;21130;51.728;8.748;2022-09-17T15:50:49;99850.09;;;13.37;63.54
34925;BME280;21130;51.728;8.748;2022-09-17T15:53:24;99853.38;;;12.98;65.36
34925;BME280;21130;51.728;8.748;2022-09-17T15:56:02;99857.22;;;12.66;68.01
34925;BME280;21130;51.728;8.748;2022-09-17T15:58:34;99863.59;;;12.51;67.68
34925;BME280;21130;51.728;8.748;2022-09-17T16:16:35;99858.63;;;11.96;75.06